createdAt,value
2019-04-05T00:01:49.470Z,99758.35
2019-04-05T00:04:20.853Z,99758.41
2019-04-05T00:06:52.222Z,99763.59
2019-04-05T00:09:23.523Z,99753.52
2019-04-05T00:11:54.993Z,99757.95
2019-04-05T00:14:26.251Z,99754.06
2019-04-05T00:16:57.536Z,99740.64
2019-04-05T00:19:29.986Z,99747.80
2019-04-05T00:22:01.289Z,99743.52
2019-04-05T00:24:32.752Z,99754.17
2019-04-05T00:27:04.094Z,99741.23
2019-04-05T00:29:35.362Z,99746.09
2019-04-05T00:32:06.782Z,99753.95
2019-04-05T00:34:38.027Z,99767.98
2019-04-05T00:37:09.515Z,99775.03
2019-04-05T00:39:40.756Z,99773.63
2019-04-05T00:42:12.109Z,99769.70
2019-04-05T00:44:43.388Z,99768.94
2019-04-05T00:47:14.831Z,99763.23
2019-04-05T00:49:47.185Z,99770.25
2019-04-05T00:52:18.517Z,99772.02
2019-04-05T00:54:49.783Z,99769.94
2019-04-05T00:57:21.100Z,99776.55
2019-04-05T00:59:52.382Z,99779.78
2019-04-05T01:02:23.669Z,99778.58
2019-04-05T01:04:54.954Z,99776.80
2019-04-05T01:07:26.192Z,99785.98
2019-04-05T01:09:57.541Z,99781.14
2019-04-05T01:12:28.834Z,99766.25
2019-04-05T01:15:00.112Z,99762.31
2019-04-05T01:17:31.467Z,99763.67
2019-04-05T01:20:04.773Z,99767.20
2019-04-05T01:22:36.033Z,99763.33
2019-04-05T01:25:07.315Z,99760.34
2019-04-05T01:27:40.738Z,99759.08
2019-04-05T01:30:13.716Z,99754.84
2019-04-05T01:32:44.966Z,99753.98
2019-04-05T01:35:16.313Z,99765.94
2019-04-05T01:37:47.767Z,99772.95
2019-04-05T01:40:19.187Z,99769.52
2019-04-05T01:42:50.631Z,99767.70
2019-04-05T01:45:21.965Z,99766.39
2019-04-05T01:47:53.302Z,99769.92
2019-04-05T01:50:24.542Z,99779.57
2019-04-05T01:52:55.879Z,99793.14
2019-04-05T01:55:27.103Z,99798.75
2019-04-05T01:57:58.425Z,99803.04
2019-04-05T02:00:29.864Z,99806.92
2019-04-05T02:03:01.023Z,99813.05
2019-04-05T02:05:33.497Z,99818.73
2019-04-05T02:08:04.898Z,99819.09
2019-04-05T02:10:36.478Z,99823.48
2019-04-05T02:13:07.659Z,99821.77
2019-04-05T02:15:39.362Z,99821.31
2019-04-05T02:18:10.639Z,99812.94
2019-04-05T02:20:41.905Z,99810.42
2019-04-05T02:23:13.422Z,99820.51
2019-04-05T02:25:44.708Z,99834.48
2019-04-05T02:28:15.974Z,99840.39
2019-04-05T02:30:47.190Z,99839.79
2019-04-05T02:33:18.415Z,99844.19
2019-04-05T02:35:49.735Z,99851.19
2019-04-05T02:38:20.983Z,99845.99
2019-04-05T02:40:53.153Z,99855.64
2019-04-05T02:43:25.782Z,99869.27
2019-04-05T02:45:57.217Z,99868.41
2019-04-05T02:48:29.911Z,99871.89
2019-04-05T02:51:02.581Z,99875.77
2019-04-05T02:53:35.369Z,99873.95
2019-04-05T02:56:07.820Z,99867.89
2019-04-05T02:58:39.738Z,99866.94
2019-04-05T03:01:10.963Z,99862.09
2019-04-05T03:03:42.332Z,99863.41
2019-04-05T03:06:13.572Z,99871.83
2019-04-05T03:08:45.008Z,99869.31
2019-04-05T03:11:17.682Z,99872.84
2019-04-05T03:13:51.719Z,99873.72
2019-04-05T03:16:40.158Z,99872.90
2019-04-05T03:19:14.724Z,99864.91
2019-04-05T03:21:51.058Z,99862.70
2019-04-05T03:24:26.056Z,99862.15
2019-04-05T03:27:02.584Z,99866.49
2019-04-05T03:29:33.713Z,99875.33
2019-04-05T03:32:05.032Z,99865.33
2019-04-05T03:34:37.357Z,99867.45
2019-04-05T03:37:09.012Z,99870.92
2019-04-05T03:39:40.192Z,99880.11
2019-04-05T03:42:11.824Z,99881.72
2019-04-05T03:44:43.369Z,99879.45
2019-04-05T03:47:17.069Z,99889.05
2019-04-05T03:49:48.578Z,99890.25
2019-04-05T03:52:19.805Z,99894.48
2019-04-05T03:54:51.151Z,99888.33
2019-04-05T03:57:22.534Z,99894.33
2019-04-05T03:59:53.891Z,99893.46
2019-04-05T04:02:25.121Z,99903.11
2019-04-05T04:04:56.267Z,99903.46
2019-04-05T04:07:27.600Z,99900.34
2019-04-05T04:09:58.859Z,99898.21
2019-04-05T04:12:30.103Z,99904.27
2019-04-05T04:15:13.898Z,99905.22
2019-04-05T04:17:46.120Z,99907.05
2019-04-05T04:20:34.080Z,99908.41
2019-04-05T04:23:06.273Z,99915.82
2019-04-05T04:25:38.090Z,99921.53
2019-04-05T04:28:11.052Z,99919.34
2019-04-05T04:30:42.399Z,99925.52
2019-04-05T04:33:14.359Z,99938.73
2019-04-05T04:35:45.929Z,99941.71
2019-04-05T04:38:17.670Z,99942.97
2019-04-05T04:40:49.057Z,99946.81
2019-04-05T04:43:20.410Z,99949.38
2019-04-05T04:45:51.800Z,99954.22
2019-04-05T04:48:23.001Z,99956.55
2019-04-05T04:50:54.337Z,99961.86
2019-04-05T04:53:26.047Z,99961.80
2019-04-05T04:55:57.717Z,99967.39
2019-04-05T04:58:28.872Z,99969.67
2019-04-05T05:01:00.091Z,99967.45
2019-04-05T05:03:31.294Z,99967.52
2019-04-05T05:06:02.582Z,99967.05
2019-04-05T05:08:34.036Z,99969.73
2019-04-05T05:11:14.563Z,99969.67
2019-04-05T05:13:38.418Z,99965.33
2019-04-05T05:16:09.746Z,99968.01
2019-04-05T05:18:41.062Z,99968.06
2019-04-05T05:21:12.303Z,99970.75
2019-04-05T05:23:43.745Z,99969.99
2019-04-05T05:26:15.283Z,99974.69
2019-04-05T05:28:46.463Z,99977.31
2019-04-05T05:31:17.678Z,99986.99
2019-04-05T05:33:49.044Z,99982.70
2019-04-05T05:36:20.515Z,99981.97
2019-04-05T05:38:52.052Z,99986.00
2019-04-05T05:41:23.263Z,99990.91
2019-04-05T05:43:54.450Z,99984.25
2019-04-05T05:46:25.678Z,99989.59
2019-04-05T05:48:56.984Z,99999.59
2019-04-05T05:51:28.280Z,99997.81
2019-04-05T05:53:59.501Z,100000.23
2019-04-05T05:56:30.740Z,100000.06
2019-04-05T05:59:01.915Z,99995.06
2019-04-05T06:01:34.327Z,99998.53
2019-04-05T06:04:05.525Z,100000.60
2019-04-05T06:06:36.824Z,100013.97
2019-04-05T06:09:08.948Z,100024.91
2019-04-05T06:11:40.139Z,100037.13
2019-04-05T06:14:11.468Z,100043.56
2019-04-05T06:16:46.636Z,100041.81
2019-04-05T06:19:15.706Z,100050.24
2019-04-05T06:21:46.887Z,100052.30
2019-04-05T06:24:18.110Z,100055.08
2019-04-05T06:26:49.518Z,100043.19
2019-04-05T06:29:20.732Z,100040.16
2019-04-05T06:31:51.989Z,100038.44
2019-04-05T06:34:23.134Z,100037.59
2019-04-05T06:36:54.571Z,100036.93
2019-04-05T06:39:25.901Z,100030.14
2019-04-05T06:41:57.612Z,100024.08
2019-04-05T06:44:28.828Z,100026.07
2019-04-05T06:47:00.385Z,100031.09
2019-04-05T06:49:32.481Z,100031.94
2019-04-05T06:52:03.798Z,100032.80
2019-04-05T06:54:35.986Z,100024.59
2019-04-05T06:57:07.123Z,100026.86
2019-04-05T06:59:38.412Z,100026.05
2019-04-05T07:02:09.619Z,100028.29
2019-04-05T07:04:40.829Z,100028.73
2019-04-05T07:07:12.062Z,100030.10
2019-04-05T07:09:43.359Z,100033.54
2019-04-05T07:12:14.585Z,100042.38
2019-04-05T07:14:47.252Z,100039.75
2019-04-05T07:17:18.398Z,100040.66
2019-04-05T07:19:49.569Z,100041.06
2019-04-05T07:22:34.184Z,100044.53
2019-04-05T07:24:53.780Z,100047.11
2019-04-05T07:27:24.897Z,100047.16
2019-04-05T07:29:56.154Z,100050.41
2019-04-05T07:32:27.392Z,100048.39
2019-04-05T07:34:58.593Z,100050.64
2019-04-05T07:37:29.740Z,100035.79
2019-04-05T07:40:00.982Z,100032.88
2019-04-05T07:42:32.288Z,100042.12
2019-04-05T07:45:03.690Z,100048.77
2019-04-05T07:47:36.002Z,100051.02
2019-04-05T07:50:07.820Z,100051.02
2019-04-05T07:52:39.033Z,100048.77
2019-04-05T07:55:10.333Z,100050.55
2019-04-05T07:57:41.535Z,100055.10
2019-04-05T08:00:36.814Z,100060.58
2019-04-05T08:03:08.162Z,100056.30
2019-04-05T08:05:39.639Z,100054.69
2019-04-05T08:08:13.733Z,100071.00
2019-04-05T08:10:46.690Z,100066.66
2019-04-05T08:13:18.207Z,100065.69
2019-04-05T08:15:49.614Z,100072.55
2019-04-05T08:18:20.801Z,100076.60
2019-04-05T08:20:51.996Z,100076.14
2019-04-05T08:23:23.306Z,100086.15
2019-04-05T08:25:54.471Z,100087.11
2019-04-05T08:28:25.656Z,100080.14
2019-04-05T08:30:56.893Z,100074.83
2019-04-05T08:33:28.063Z,100077.92
2019-04-05T08:35:59.216Z,100079.38
2019-04-05T08:38:30.364Z,100092.52
2019-04-05T08:41:01.572Z,100098.03
2019-04-05T08:43:32.724Z,100097.62
2019-04-05T08:46:04.007Z,100092.86
2019-04-05T08:48:35.212Z,100088.28
2019-04-05T08:51:06.376Z,100101.94
2019-04-05T08:53:37.582Z,100098.84
2019-04-05T08:56:08.859Z,100095.38
2019-04-05T08:58:40.111Z,100098.55
2019-04-05T09:01:11.288Z,100106.08
2019-04-05T09:03:42.451Z,100107.51
2019-04-05T09:06:13.616Z,100116.30
2019-04-05T09:08:44.793Z,100124.29
2019-04-05T09:11:15.972Z,100121.81
2019-04-05T09:13:47.172Z,100125.31
2019-04-05T09:16:18.356Z,100130.40
2019-04-05T09:18:49.744Z,100134.69
2019-04-05T09:21:21.271Z,100133.78
2019-04-05T09:23:52.507Z,100142.42
2019-04-05T09:26:23.717Z,100147.62
2019-04-05T09:28:54.948Z,100149.37
2019-04-05T09:31:26.130Z,100150.69
2019-04-05T09:33:57.394Z,100153.38
2019-04-05T09:36:28.585Z,100151.62
2019-04-05T09:38:59.844Z,100152.52
2019-04-05T09:41:31.238Z,100154.86
2019-04-05T09:44:02.449Z,100147.88
2019-04-05T09:46:45.980Z,100149.81
2019-04-05T09:49:06.502Z,100154.27
2019-04-05T09:51:37.825Z,100157.52
2019-04-05T09:54:08.963Z,100158.36
2019-04-05T09:56:40.172Z,100159.68
2019-04-05T09:59:11.546Z,100159.73
2019-04-05T10:01:42.746Z,100160.75
2019-04-05T10:04:13.996Z,100164.34
2019-04-05T10:06:45.212Z,100157.48
2019-04-05T10:09:16.375Z,100149.19
2019-04-05T10:11:47.560Z,100151.03
2019-04-05T10:14:18.854Z,100146.67
2019-04-05T10:16:50.053Z,100160.31
2019-04-05T10:19:21.324Z,100159.88
2019-04-05T10:21:52.560Z,100159.52
2019-04-05T10:24:23.776Z,100161.39
2019-04-05T10:26:54.997Z,100161.09
2019-04-05T10:29:26.193Z,100155.19
2019-04-05T10:31:57.518Z,100161.06
2019-04-05T10:34:28.680Z,100160.41
2019-04-05T10:36:59.932Z,100167.14
2019-04-05T10:39:31.280Z,100171.29
2019-04-05T10:42:04.016Z,100173.17
2019-04-05T10:44:35.456Z,100173.31
2019-04-05T10:47:07.071Z,100178.64
2019-04-05T10:49:38.374Z,100172.66
2019-04-05T10:52:09.658Z,100174.64
2019-04-05T10:54:40.942Z,100190.67
2019-04-05T10:57:12.171Z,100185.61
2019-04-05T10:59:43.591Z,100183.63
2019-04-05T11:02:14.777Z,100191.22
2019-04-05T11:04:45.960Z,100181.91
2019-04-05T11:07:17.147Z,100185.60
2019-04-05T11:09:48.305Z,100182.96
2019-04-05T11:12:19.574Z,100186.89
2019-04-05T11:14:50.788Z,100181.06
2019-04-05T11:17:21.976Z,100181.35
2019-04-05T11:19:53.174Z,100187.22
2019-04-05T11:22:24.387Z,100190.26
2019-04-05T11:24:56.805Z,100199.06
2019-04-05T11:27:27.926Z,100189.84
2019-04-05T11:29:59.126Z,100188.17
2019-04-05T11:32:30.414Z,100193.36
2019-04-05T11:35:01.679Z,100197.30
2019-04-05T11:37:32.898Z,100197.25
2019-04-05T11:40:04.976Z,100200.73
2019-04-05T11:42:38.588Z,100200.14
2019-04-05T11:45:10.028Z,100199.73
2019-04-05T11:47:42.020Z,100196.20
2019-04-05T11:50:13.685Z,100201.92
2019-04-05T11:52:44.928Z,100201.92
2019-04-05T11:55:18.535Z,100196.30
2019-04-05T11:57:49.836Z,100200.73
2019-04-05T12:00:25.956Z,100198.11
2019-04-05T12:03:00.351Z,100207.02
2019-04-05T12:05:31.631Z,100202.30
2019-04-05T12:08:02.807Z,100201.08
2019-04-05T12:10:34.099Z,100202.49
2019-04-05T12:13:05.649Z,100204.87
2019-04-05T12:15:36.932Z,100205.91
2019-04-05T12:18:08.131Z,100212.18
2019-04-05T12:20:49.107Z,100196.42
2019-04-05T12:23:13.089Z,100205.28
2019-04-05T12:25:44.596Z,100202.74
2019-04-05T12:28:17.231Z,100195.84
2019-04-05T12:30:49.214Z,100203.02
2019-04-05T12:33:21.479Z,100199.07
2019-04-05T12:35:56.304Z,100200.03
2019-04-05T12:38:33.140Z,100203.17
2019-04-05T12:41:05.196Z,100203.34
2019-04-05T12:43:36.387Z,100190.22
2019-04-05T12:46:07.759Z,100191.17
2019-04-05T12:48:38.934Z,100189.48
2019-04-05T12:51:10.173Z,100188.76
2019-04-05T12:53:41.349Z,100182.75
2019-04-05T12:56:12.515Z,100192.98
2019-04-05T12:58:43.848Z,100197.03
2019-04-05T13:01:15.049Z,100196.66
2019-04-05T13:03:51.112Z,100199.80
2019-04-05T13:06:21.781Z,100205.98
2019-04-05T13:08:54.483Z,100203.25
2019-04-05T13:11:26.625Z,100199.17
2019-04-05T13:13:58.231Z,100210.11
2019-04-05T13:16:29.417Z,100203.13
2019-04-05T13:19:01.708Z,100201.44
2019-04-05T13:21:33.231Z,100193.98
2019-04-05T13:24:09.088Z,100195.30
2019-04-05T13:26:37.558Z,100205.52
2019-04-05T13:29:08.772Z,100203.02
2019-04-05T13:31:39.980Z,100197.47
2019-04-05T13:34:11.196Z,100197.59
2019-04-05T13:36:42.436Z,100191.62
2019-04-05T13:39:14.167Z,100192.39
2019-04-05T13:41:45.507Z,100196.69
2019-04-05T13:44:16.738Z,100192.53
2019-04-05T13:46:47.934Z,100196.61
2019-04-05T13:49:19.147Z,100195.78
2019-04-05T13:51:50.438Z,100196.25
2019-04-05T13:54:21.688Z,100197.52
2019-04-05T13:56:53.036Z,100202.34
2019-04-05T13:59:24.502Z,100195.75
2019-04-05T14:02:05.640Z,100209.35
2019-04-05T14:04:29.840Z,100197.44
2019-04-05T14:07:03.876Z,100200.48
2019-04-05T14:09:35.203Z,100197.31
2019-04-05T14:12:07.344Z,100199.91
2019-04-05T14:14:41.509Z,100194.13
2019-04-05T14:17:13.771Z,100194.42
2019-04-05T14:19:46.757Z,100203.61
2019-04-05T14:22:22.522Z,100200.09
2019-04-05T14:24:56.599Z,100202.24
2019-04-05T14:27:26.563Z,100205.74
2019-04-05T14:29:57.832Z,100206.57
2019-04-05T14:32:29.207Z,100204.80
2019-04-05T14:35:00.447Z,100198.66
2019-04-05T14:37:31.754Z,100201.30
2019-04-05T14:40:03.019Z,100203.11
2019-04-05T14:42:34.368Z,100204.84
2019-04-05T14:45:06.135Z,100209.58
2019-04-05T14:47:41.285Z,100208.62
2019-04-05T14:50:11.481Z,100209.90
2019-04-05T14:52:42.798Z,100208.99
2019-04-05T14:55:14.051Z,100204.95
2019-04-05T14:57:45.444Z,100208.45
2019-04-05T15:00:18.320Z,100202.80
2019-04-05T15:02:49.567Z,100197.98
2019-04-05T15:05:20.818Z,100198.45
2019-04-05T15:07:54.890Z,100200.25
2019-04-05T15:10:26.071Z,100192.87
2019-04-05T15:13:00.115Z,100195.52
2019-04-05T15:15:30.591Z,100198.16
2019-04-05T15:18:01.931Z,100199.98
2019-04-05T15:20:34.781Z,100189.92
2019-04-05T15:23:09.558Z,100192.19
2019-04-05T15:25:40.286Z,100194.50
2019-04-05T15:28:11.590Z,100194.55
2019-04-05T15:30:42.950Z,100189.72
2019-04-05T15:33:14.241Z,100183.63
2019-04-05T15:35:45.502Z,100181.48
2019-04-05T15:38:16.811Z,100188.20
2019-04-05T15:40:48.076Z,100185.19
2019-04-05T15:43:19.355Z,100184.78
2019-04-05T15:45:52.659Z,100177.41
2019-04-05T15:48:23.664Z,100181.85
2019-04-05T15:50:57.660Z,100186.72
2019-04-05T15:53:31.854Z,100192.58
2019-04-05T15:56:03.870Z,100194.39
2019-04-05T15:58:35.045Z,100192.20
2019-04-05T16:01:06.852Z,100196.16
2019-04-05T16:03:39.599Z,100196.16
2019-04-05T16:06:10.928Z,100192.70
2019-04-05T16:08:42.278Z,100197.48
2019-04-05T16:11:13.560Z,100205.03
2019-04-05T16:13:45.911Z,100204.50
2019-04-05T16:16:17.134Z,100204.45
2019-04-05T16:18:48.471Z,100200.49
2019-04-05T16:21:20.937Z,100200.45
2019-04-05T16:23:52.154Z,100199.55
2019-04-05T16:26:23.427Z,100200.36
2019-04-05T16:28:54.745Z,100201.20
2019-04-05T16:31:26.060Z,100201.20
2019-04-05T16:33:58.390Z,100202.47
2019-04-05T16:36:31.077Z,100206.92
2019-04-05T16:39:02.479Z,100198.42
2019-04-05T16:41:35.508Z,100208.03
2019-04-05T16:44:07.747Z,100199.17
2019-04-05T16:46:39.003Z,100210.17
2019-04-05T16:49:10.379Z,100203.53
2019-04-05T16:51:42.697Z,100212.36
2019-04-05T16:54:13.984Z,100214.41
2019-04-05T16:56:45.544Z,100204.69
2019-04-05T16:59:16.803Z,100204.56
2019-04-05T17:01:48.131Z,100215.02
2019-04-05T17:04:19.393Z,100216.17
2019-04-05T17:06:50.766Z,100219.98
2019-04-05T17:09:22.217Z,100216.41
2019-04-05T17:11:57.090Z,100207.54
2019-04-05T17:14:30.451Z,100202.63
2019-04-05T17:17:03.509Z,100201.73
2019-04-05T17:19:34.749Z,100202.59
2019-04-05T17:22:06.018Z,100199.41
2019-04-05T17:24:37.469Z,100189.23
2019-04-05T17:27:08.798Z,100193.55
2019-04-05T17:29:40.540Z,100191.31
2019-04-05T17:32:11.840Z,100188.60
2019-04-05T17:34:43.252Z,100192.06
2019-04-05T17:37:14.431Z,100191.11
2019-04-05T17:39:45.707Z,100195.34
2019-04-05T17:42:17.259Z,100200.03
2019-04-05T17:44:48.648Z,100194.08
2019-04-05T17:47:20.994Z,100199.66
2019-04-05T17:49:52.343Z,100200.76
2019-04-05T17:52:23.861Z,100206.30
2019-04-05T17:54:55.130Z,100190.75
2019-04-05T17:57:27.523Z,100206.34
2019-04-05T17:59:59.618Z,100201.28
2019-04-05T18:02:32.420Z,100201.51
2019-04-05T18:05:04.935Z,100209.22
2019-04-05T18:07:37.830Z,100206.39
2019-04-05T18:10:09.227Z,100205.80
2019-04-05T18:12:40.538Z,100210.91
2019-04-05T18:15:11.882Z,100211.58
2019-04-05T18:17:43.349Z,100211.39
2019-04-05T18:20:14.726Z,100206.80
2019-04-05T18:22:46.441Z,100218.95
2019-04-05T18:25:17.741Z,100218.34
2019-04-05T18:27:49.208Z,100216.92
2019-04-05T18:30:20.470Z,100222.44
2019-04-05T18:32:52.343Z,100222.75
2019-04-05T18:35:23.674Z,100224.36
2019-04-05T18:37:55.041Z,100232.47
2019-04-05T18:40:39.233Z,100240.31
2019-04-05T18:42:59.504Z,100233.57
2019-04-05T18:45:33.455Z,100242.64
2019-04-05T18:48:03.775Z,100241.63
2019-04-05T18:50:35.125Z,100239.79
2019-04-05T18:53:07.141Z,100246.72
2019-04-05T18:55:38.384Z,100250.92
2019-04-05T18:58:09.778Z,100256.13
2019-04-05T19:00:41.135Z,100257.36
2019-04-05T19:03:14.107Z,100256.84
2019-04-05T19:05:45.400Z,100251.93
2019-04-05T19:08:16.624Z,100256.17
2019-04-05T19:10:48.005Z,100255.62
2019-04-05T19:13:19.294Z,100266.08
2019-04-05T19:15:50.502Z,100265.52
2019-04-05T19:18:21.731Z,100263.19
2019-04-05T19:20:53.170Z,100267.92
2019-04-05T19:23:24.479Z,100265.64
2019-04-05T19:25:55.719Z,100263.77
2019-04-05T19:28:27.801Z,100263.22
2019-04-05T19:48:50.537Z,100268.78
2019-04-05T19:51:23.204Z,100259.52
2019-04-05T19:54:01.204Z,100260.74
2019-04-05T19:56:39.689Z,100249.27
2019-04-05T19:59:12.670Z,100247.83
2019-04-05T20:01:44.051Z,100258.98
2019-04-05T20:04:15.412Z,100272.12
2019-04-05T20:06:46.723Z,100245.72
2019-04-05T20:09:20.071Z,100270.13
2019-04-05T20:11:51.399Z,100245.09
2019-04-05T20:14:24.226Z,100265.50
2019-04-05T20:16:56.666Z,100265.03
2019-04-05T20:19:27.971Z,100260.59
2019-04-05T20:22:00.503Z,100271.53
2019-04-05T20:24:31.981Z,100269.72
2019-04-05T20:27:03.260Z,100262.34
2019-04-05T20:29:34.526Z,100258.24
2019-04-05T20:32:07.383Z,100256.87
2019-04-05T20:34:38.726Z,100271.31
2019-04-05T20:37:10.142Z,100264.28
2019-04-05T20:39:41.454Z,100263.72
2019-04-05T20:42:12.666Z,100263.59
2019-04-05T20:44:44.173Z,100264.91
2019-04-05T20:47:15.461Z,100265.25
2019-04-05T20:49:46.717Z,100270.91
2019-04-05T20:52:18.441Z,100275.27
2019-04-05T20:54:49.624Z,100279.14
2019-04-05T20:57:20.761Z,100276.39
2019-04-05T20:59:52.119Z,100275.42
2019-04-05T21:02:26.357Z,100276.23
2019-04-05T21:04:57.048Z,100267.31
2019-04-05T21:07:28.372Z,100268.56
2019-04-05T21:09:59.567Z,100265.41
2019-04-05T21:12:30.877Z,100267.94
2019-04-05T21:15:02.696Z,100265.25
2019-04-05T21:17:35.088Z,100263.47
2019-04-05T21:20:07.919Z,100262.50
2019-04-05T21:22:39.037Z,100263.75
2019-04-05T21:25:11.003Z,100264.56
2019-04-05T21:27:42.374Z,100264.03
2019-04-05T21:30:13.905Z,100265.24
2019-04-05T21:32:45.312Z,100263.87
2019-04-05T21:35:16.819Z,100266.84
2019-04-05T21:37:49.418Z,100269.90
2019-04-05T21:40:20.838Z,100266.70
2019-04-05T21:42:54.095Z,100268.86
2019-04-05T21:45:25.126Z,100268.70
2019-04-05T21:47:56.456Z,100267.73
2019-04-05T21:50:27.799Z,100267.20
2019-04-05T21:52:59.168Z,100277.63
2019-04-05T21:55:30.607Z,100275.34
2019-04-05T21:58:02.083Z,100279.12
2019-04-05T22:00:44.009Z,100278.65
2019-04-05T22:03:16.052Z,100280.30
2019-04-05T22:05:47.339Z,100283.67
2019-04-05T22:08:18.684Z,100287.53
2019-04-05T22:10:50.057Z,100279.59
2019-04-05T22:13:21.515Z,100276.81
2019-04-05T22:15:53.130Z,100283.27
2019-04-05T22:18:24.387Z,100284.11
2019-04-05T22:20:56.356Z,100278.80
2019-04-05T22:23:27.936Z,100281.36
2019-04-05T22:25:59.296Z,100287.34
2019-04-05T22:28:30.648Z,100285.13
2019-04-05T22:31:02.193Z,100289.06
2019-04-05T22:33:33.464Z,100278.44
2019-04-05T22:36:07.285Z,100280.15
2019-04-05T22:38:41.665Z,100274.83
2019-04-05T22:41:13.068Z,100289.60
2019-04-05T22:43:44.292Z,100295.12
2019-04-05T22:46:15.645Z,100292.42
2019-04-05T22:48:46.967Z,100285.36
2019-04-05T22:51:18.237Z,100281.30
2019-04-05T22:53:49.615Z,100280.83
2019-04-05T22:56:20.871Z,100286.07
2019-04-05T22:58:52.193Z,100290.00
2019-04-05T23:01:23.653Z,100290.81
2019-04-05T23:03:54.865Z,100298.61
2019-04-05T23:06:26.221Z,100297.70
2019-04-05T23:08:57.521Z,100298.03
2019-04-05T23:11:28.708Z,100300.52
2019-04-05T23:13:59.985Z,100307.81
2019-04-05T23:16:32.919Z,100305.13
2019-04-05T23:19:04.255Z,100302.03
2019-04-05T23:21:35.444Z,100306.70
2019-04-05T23:24:06.729Z,100307.47
2019-04-05T23:26:37.990Z,100303.88
2019-04-05T23:29:09.255Z,100305.52
2019-04-05T23:31:40.690Z,100301.52
2019-04-05T23:34:14.976Z,100305.34
2019-04-05T23:36:46.213Z,100313.07
2019-04-05T23:39:17.553Z,100315.22
2019-04-05T23:41:48.813Z,100319.55
2019-04-05T23:44:20.690Z,100312.93
2019-04-05T23:46:52.724Z,100318.00
2019-04-05T23:49:24.204Z,100324.88
2019-04-05T23:51:55.495Z,100321.58
2019-04-05T23:54:26.729Z,100323.55
2019-04-05T23:56:57.998Z,100320.75
2019-04-05T23:59:29.312Z,100325.02
